Devils Elbow, Missouri
Current Conditions -  °F | °C
As of 11:27 AM on Sunday 23 Nov 2014 (Local Time) from KTBN Reporting Station
Light Rain Light Rain  
Wind Chill: 54°   Ceiling: 600
Heat Index: 54°   Visibility: 5mi
Dew Point: 54°   Wind: 9mph
Humidity: 100%   Direction: 150°SSE
Pressure: 29.48"   Gusts: NA
Location:  37.85°N, 92.06°W
Report Text: KTBN 231727Z AUTO 15008KT 130V200 5SM -RA BR OVC006 12/12 A2948 RMK AO2 RAB1724DZB1703E1724
Loading
Personal Weather Stations






























Interactive Weather Map New forecast layout! Learn more

10-Day Weather Forecast

Advertisements
Track Severe Weather on mobile